createdAt,value
2022-11-30T00:01:23.245Z,29.25
2022-11-30T00:03:55.376Z,28.85
2022-11-30T00:06:24.227Z,29.35
2022-11-30T00:08:56.033Z,28.38
2022-11-30T00:11:25.888Z,27.58
2022-11-30T00:13:53.631Z,28.05
2022-11-30T00:16:21.924Z,27.10
2022-11-30T00:18:49.933Z,26.77
2022-11-30T00:21:17.568Z,27.67
2022-11-30T00:23:46.829Z,28.15
2022-11-30T00:26:16.469Z,26.95
2022-11-30T00:28:45.885Z,28.17
2022-11-30T00:31:15.770Z,27.50
2022-11-30T00:33:44.385Z,26.50
2022-11-30T00:36:17.487Z,26.98
2022-11-30T00:38:45.899Z,26.30
2022-11-30T00:41:14.426Z,27.92
2022-11-30T00:43:42.381Z,27.13
2022-11-30T00:46:10.698Z,27.63
2022-11-30T00:48:39.548Z,27.98
2022-11-30T00:51:09.608Z,26.58
2022-11-30T00:53:37.783Z,27.83
2022-11-30T00:56:06.279Z,27.20
2022-11-30T00:58:33.889Z,27.65
2022-11-30T01:01:01.585Z,26.67
2022-11-30T01:03:29.067Z,26.77
2022-11-30T01:06:02.124Z,26.80
2022-11-30T01:08:29.618Z,26.58
2022-11-30T01:10:57.967Z,28.20
2022-11-30T01:13:25.500Z,27.63
2022-11-30T01:15:53.028Z,27.52
2022-11-30T01:18:20.596Z,27.92
2022-11-30T01:20:48.200Z,28.35
2022-11-30T01:23:15.675Z,28.48
2022-11-30T01:25:43.287Z,28.27
2022-11-30T01:28:11.086Z,26.65
2022-11-30T01:30:38.504Z,28.25
2022-11-30T01:33:06.237Z,28.13
2022-11-30T01:35:33.713Z,26.50
2022-11-30T01:38:01.238Z,27.73
2022-11-30T01:40:28.767Z,27.20
2022-11-30T01:42:56.267Z,27.33
2022-11-30T01:45:23.763Z,27.13
2022-11-30T01:47:55.698Z,26.13
2022-11-30T01:50:32.368Z,25.92
2022-11-30T01:53:00.044Z,26.50
2022-11-30T01:55:36.336Z,26.65
2022-11-30T01:58:06.766Z,25.25
2022-11-30T02:00:34.297Z,24.80
2022-11-30T02:03:17.757Z,25.63
2022-11-30T02:05:46.206Z,26.25
2022-11-30T02:08:14.223Z,26.98
2022-11-30T02:10:45.617Z,26.77
2022-11-30T02:13:22.287Z,26.42
2022-11-30T02:16:08.589Z,27.05
2022-11-30T02:18:54.098Z,25.50
2022-11-30T02:22:00.165Z,27.27
2022-11-30T02:24:41.971Z,24.85
2022-11-30T02:27:41.640Z,26.33
2022-11-30T02:30:14.431Z,26.50
2022-11-30T02:32:54.918Z,25.00
2022-11-30T02:35:27.286Z,27.35
2022-11-30T02:37:56.515Z,25.50
2022-11-30T02:40:24.626Z,26.05
2022-11-30T02:42:54.420Z,26.98
2022-11-30T02:45:31.636Z,27.40
2022-11-30T02:48:04.848Z,26.38
2022-11-30T02:50:39.996Z,27.52
2022-11-30T02:53:09.763Z,28.20
2022-11-30T02:55:37.510Z,27.33
2022-11-30T02:58:05.648Z,26.75
2022-11-30T03:00:33.134Z,28.08
2022-11-30T03:03:00.798Z,28.00
2022-11-30T03:05:28.370Z,28.33
2022-11-30T03:07:55.867Z,27.73
2022-11-30T03:10:23.603Z,28.13
2022-11-30T03:12:51.521Z,28.80
2022-11-30T03:15:19.071Z,27.92
2022-11-30T03:17:46.536Z,29.23
2022-11-30T03:20:14.073Z,29.27
2022-11-30T03:22:41.631Z,30.50
2022-11-30T03:25:09.479Z,31.55
2022-11-30T03:27:37.048Z,31.48
2022-11-30T03:30:05.895Z,31.75
2022-11-30T03:32:33.445Z,32.47
2022-11-30T03:35:00.927Z,31.45
2022-11-30T03:37:28.458Z,31.52
2022-11-30T03:39:58.332Z,31.73
2022-11-30T03:42:26.097Z,31.77
2022-11-30T03:44:53.746Z,31.75
2022-11-30T03:47:21.282Z,31.80
2022-11-30T03:49:48.797Z,30.70
2022-11-30T03:52:16.339Z,29.25
2022-11-30T03:54:44.007Z,31.17
2022-11-30T03:57:11.659Z,31.00
2022-11-30T03:59:39.239Z,32.40
2022-11-30T04:02:06.683Z,33.05
2022-11-30T04:04:34.264Z,32.90
2022-11-30T04:07:01.807Z,34.55
2022-11-30T04:09:29.287Z,34.35
2022-11-30T04:11:56.769Z,32.67
2022-11-30T04:14:24.227Z,32.75
2022-11-30T04:16:51.700Z,32.50
2022-11-30T04:19:19.154Z,32.20
2022-11-30T04:21:46.827Z,32.08
2022-11-30T04:24:14.248Z,30.92
2022-11-30T04:26:41.744Z,31.00
2022-11-30T04:29:09.217Z,29.52
2022-11-30T04:31:36.745Z,30.20
2022-11-30T04:34:04.262Z,28.85
2022-11-30T04:36:31.756Z,28.35
2022-11-30T04:38:59.264Z,27.45
2022-11-30T04:41:26.835Z,26.67
2022-11-30T04:43:55.011Z,26.90
2022-11-30T04:46:22.540Z,26.50
2022-11-30T04:48:50.069Z,25.65
2022-11-30T04:51:17.547Z,25.80
2022-11-30T04:53:45.038Z,24.30
2022-11-30T04:56:12.676Z,26.10
2022-11-30T04:58:40.243Z,26.67
2022-11-30T05:01:08.107Z,26.55
2022-11-30T05:03:35.669Z,25.25
2022-11-30T05:06:03.668Z,25.67
2022-11-30T05:12:37.621Z,25.42
2022-11-30T05:15:05.732Z,25.75
2022-11-30T05:17:33.372Z,27.08
2022-11-30T05:20:00.890Z,26.48
2022-11-30T05:22:28.442Z,24.45
2022-11-30T05:24:56.011Z,23.77
2022-11-30T05:27:23.651Z,24.38
2022-11-30T05:29:51.205Z,23.88
2022-11-30T05:32:19.152Z,23.77
2022-11-30T05:34:51.129Z,23.38
2022-11-30T05:37:19.997Z,22.85
2022-11-30T05:39:47.537Z,24.25
2022-11-30T05:42:15.142Z,24.83
2022-11-30T05:44:43.250Z,24.33
2022-11-30T05:47:10.989Z,24.75
2022-11-30T05:49:38.665Z,24.77
2022-11-30T05:52:06.387Z,25.38
2022-11-30T05:54:34.959Z,26.67
2022-11-30T05:57:02.664Z,26.23
2022-11-30T05:59:30.302Z,25.45
2022-11-30T06:01:57.909Z,25.80
2022-11-30T06:04:25.681Z,25.73
2022-11-30T06:06:55.923Z,26.58
2022-11-30T06:09:23.872Z,26.48
2022-11-30T06:11:51.511Z,25.15
2022-11-30T06:14:19.111Z,25.40
2022-11-30T06:16:46.678Z,26.63
2022-11-30T06:19:14.251Z,27.83
2022-11-30T06:21:41.951Z,26.65
2022-11-30T06:24:10.333Z,27.02
2022-11-30T06:26:37.960Z,27.10
2022-11-30T06:29:05.697Z,25.70
2022-11-30T06:31:33.452Z,26.58
2022-11-30T06:34:01.080Z,25.67
2022-11-30T06:36:34.169Z,28.13
2022-11-30T06:39:04.267Z,28.25
2022-11-30T06:41:31.808Z,29.15
2022-11-30T06:43:59.500Z,28.10
2022-11-30T06:46:27.522Z,28.00
2022-11-30T06:48:55.802Z,29.13
2022-11-30T06:51:23.370Z,30.00
2022-11-30T06:53:50.963Z,27.85
2022-11-30T06:56:18.988Z,29.85
2022-11-30T06:58:46.803Z,28.38
2022-11-30T07:01:15.868Z,29.05
2022-11-30T07:03:44.039Z,30.60
2022-11-30T07:06:13.341Z,29.20
2022-11-30T07:08:42.408Z,29.80
2022-11-30T07:11:11.571Z,29.23
2022-11-30T07:13:39.552Z,30.58
2022-11-30T07:16:10.864Z,28.13
2022-11-30T07:18:39.067Z,27.48
2022-11-30T07:21:07.461Z,27.58
2022-11-30T07:23:56.644Z,28.00
2022-11-30T07:26:25.955Z,27.52
2022-11-30T07:29:05.392Z,28.50
2022-11-30T07:31:36.620Z,27.25
2022-11-30T07:34:07.700Z,24.98
2022-11-30T07:36:36.798Z,25.33
2022-11-30T07:39:04.592Z,27.20
2022-11-30T07:41:32.181Z,24.85
2022-11-30T07:44:05.452Z,25.23
2022-11-30T07:46:35.961Z,26.30
2022-11-30T07:49:04.992Z,24.25
2022-11-30T07:51:33.027Z,24.77
2022-11-30T07:54:01.200Z,24.02
2022-11-30T07:56:29.653Z,24.15
2022-11-30T07:58:59.882Z,23.58
2022-11-30T08:01:30.655Z,23.00
2022-11-30T08:03:59.214Z,23.40
2022-11-30T08:06:29.772Z,23.88
2022-11-30T08:09:02.857Z,23.55
2022-11-30T08:11:33.422Z,24.63
2022-11-30T08:14:02.691Z,23.90
2022-11-30T08:16:36.131Z,23.88
2022-11-30T08:19:03.863Z,23.63
2022-11-30T08:21:34.370Z,23.98
2022-11-30T08:24:01.984Z,24.23
2022-11-30T08:26:32.509Z,25.27
2022-11-30T08:29:01.393Z,24.63
2022-11-30T08:31:31.532Z,24.42
2022-11-30T08:34:06.221Z,25.52
2022-11-30T08:36:34.864Z,24.77
2022-11-30T08:39:05.251Z,23.80
2022-11-30T08:41:35.157Z,23.40
2022-11-30T08:44:02.797Z,25.05
2022-11-30T08:49:22.037Z,23.25
2022-11-30T08:52:21.635Z,23.77
2022-11-30T08:54:50.071Z,23.15
2022-11-30T08:57:21.222Z,22.17
2022-11-30T08:59:48.981Z,22.40
2022-11-30T09:02:18.240Z,23.00
2022-11-30T09:04:49.416Z,22.70
2022-11-30T09:07:17.675Z,22.23
2022-11-30T09:09:45.793Z,22.20
2022-11-30T09:12:13.372Z,21.52
2022-11-30T09:14:41.055Z,22.77
2022-11-30T09:17:08.681Z,21.02
2022-11-30T09:19:36.244Z,24.45
2022-11-30T09:22:03.828Z,23.33
2022-11-30T09:24:31.451Z,23.48
2022-11-30T09:26:59.061Z,23.80
2022-11-30T09:29:26.677Z,22.95
2022-11-30T09:31:54.284Z,22.90
2022-11-30T09:34:21.960Z,23.63
2022-11-30T09:36:49.492Z,22.90
2022-11-30T09:39:17.167Z,23.08
2022-11-30T09:42:02.972Z,23.05
2022-11-30T09:44:52.318Z,23.80
2022-11-30T09:47:43.130Z,23.83
2022-11-30T09:50:15.710Z,22.65
2022-11-30T09:52:48.089Z,23.85
2022-11-30T09:55:24.685Z,23.40
2022-11-30T09:57:55.963Z,20.55
2022-11-30T10:00:25.373Z,21.55
2022-11-30T10:02:55.872Z,22.20
2022-11-30T10:05:27.740Z,19.67
2022-11-30T10:08:29.594Z,20.23
2022-11-30T10:11:34.864Z,19.88
2022-11-30T10:14:05.170Z,20.00
2022-11-30T10:16:50.675Z,20.38
2022-11-30T10:19:48.463Z,20.15
2022-11-30T10:22:56.092Z,20.45
2022-11-30T10:25:29.433Z,20.75
2022-11-30T10:28:46.481Z,20.55
2022-11-30T10:31:21.296Z,19.38
2022-11-30T10:33:54.939Z,17.40
2022-11-30T10:38:58.813Z,18.23
2022-11-30T10:44:32.105Z,18.00
2022-11-30T10:47:20.305Z,17.45
2022-11-30T10:49:50.694Z,19.13
2022-11-30T10:52:29.133Z,18.45
2022-11-30T10:55:03.614Z,17.95
2022-11-30T10:57:33.576Z,20.20
2022-11-30T11:00:05.700Z,20.23
2022-11-30T11:02:50.322Z,19.20
2022-11-30T11:05:18.107Z,19.90
2022-11-30T11:08:05.772Z,20.80
2022-11-30T11:10:45.318Z,20.38
2022-11-30T11:13:35.133Z,20.90
2022-11-30T11:16:05.420Z,21.98
2022-11-30T11:18:34.591Z,21.98
2022-11-30T11:21:20.324Z,21.30
2022-11-30T11:23:54.678Z,21.98
2022-11-30T11:26:27.991Z,21.77
2022-11-30T11:28:59.672Z,22.25
2022-11-30T11:31:38.501Z,21.95
2022-11-30T11:34:22.922Z,21.85
2022-11-30T11:37:06.789Z,21.60
2022-11-30T11:39:34.392Z,22.63
2022-11-30T11:42:02.022Z,22.20
2022-11-30T11:44:29.688Z,21.80
2022-11-30T11:47:07.504Z,21.50
2022-11-30T11:49:37.233Z,22.92
2022-11-30T11:52:09.181Z,22.17
2022-11-30T11:54:36.871Z,21.10
2022-11-30T11:57:10.241Z,23.00
2022-11-30T11:59:51.662Z,23.10
2022-11-30T12:02:32.541Z,21.00
2022-11-30T12:05:12.383Z,21.80
2022-11-30T12:08:01.764Z,22.50
2022-11-30T12:10:53.438Z,20.98
2022-11-30T12:13:32.734Z,21.92
2022-11-30T12:16:14.610Z,23.10
2022-11-30T12:19:15.131Z,22.05
2022-11-30T12:22:10.251Z,21.23
2022-11-30T12:24:37.822Z,22.30
2022-11-30T12:27:08.195Z,21.83
2022-11-30T12:29:53.792Z,21.15
2022-11-30T12:33:03.610Z,20.73
2022-11-30T12:35:54.351Z,21.05
2022-11-30T12:38:36.950Z,21.85
2022-11-30T12:41:26.277Z,20.70
2022-11-30T12:44:12.648Z,20.38
2022-11-30T12:47:17.138Z,19.92
2022-11-30T12:50:05.742Z,19.25
2022-11-30T12:53:02.414Z,19.35
2022-11-30T12:55:48.282Z,19.30
2022-11-30T12:58:46.402Z,18.38
2022-11-30T13:01:32.377Z,18.42
2022-11-30T13:04:25.710Z,20.38
2022-11-30T13:07:30.350Z,21.30
2022-11-30T13:12:37.073Z,20.30
2022-11-30T13:15:15.719Z,20.00
2022-11-30T13:17:46.066Z,20.08
2022-11-30T13:20:50.222Z,19.67
2022-11-30T13:23:39.532Z,20.27
2022-11-30T13:26:35.811Z,19.17
2022-11-30T13:29:25.640Z,20.13
2022-11-30T13:32:33.921Z,19.48
2022-11-30T13:35:28.493Z,19.42
2022-11-30T13:41:08.717Z,20.67
2022-11-30T13:43:45.745Z,21.35
2022-11-30T13:46:15.142Z,19.83
2022-11-30T13:48:45.014Z,20.20
2022-11-30T13:51:13.775Z,20.85
2022-11-30T13:53:41.549Z,21.35
2022-11-30T13:56:18.171Z,20.98
2022-11-30T13:59:23.476Z,20.45
2022-11-30T14:01:51.991Z,19.58
2022-11-30T14:04:19.414Z,20.77
2022-11-30T14:06:51.055Z,21.27
2022-11-30T14:09:37.435Z,20.35
2022-11-30T14:12:47.603Z,21.30
2022-11-30T14:15:31.963Z,20.42
2022-11-30T14:18:03.192Z,22.05
2022-11-30T14:20:38.148Z,20.00
2022-11-30T14:23:08.913Z,20.08
2022-11-30T14:25:39.822Z,19.58
2022-11-30T14:28:11.873Z,20.05
2022-11-30T14:30:40.332Z,20.48
2022-11-30T14:33:19.580Z,19.77
2022-11-30T14:35:53.055Z,20.42
2022-11-30T14:38:30.930Z,19.90
2022-11-30T14:40:59.288Z,21.85
2022-11-30T14:43:26.845Z,20.20
2022-11-30T14:46:05.618Z,21.08
2022-11-30T14:48:35.964Z,20.88
2022-11-30T14:51:04.116Z,22.08
2022-11-30T14:53:55.299Z,23.67
2022-11-30T14:56:36.961Z,21.35
2022-11-30T14:59:28.883Z,23.13
2022-11-30T15:02:02.543Z,21.20
2022-11-30T15:06:59.413Z,21.63
2022-11-30T15:09:32.541Z,22.45
2022-11-30T15:12:00.202Z,22.10
2022-11-30T15:14:27.932Z,22.50
2022-11-30T15:16:59.826Z,23.15
2022-11-30T15:19:29.201Z,24.10
2022-11-30T15:21:57.943Z,24.17
2022-11-30T15:24:27.222Z,23.45
2022-11-30T15:26:59.227Z,23.92
2022-11-30T15:29:37.732Z,23.92
2022-11-30T15:32:15.674Z,22.98
2022-11-30T15:35:17.702Z,24.00
2022-11-30T15:37:45.432Z,23.70
2022-11-30T15:40:43.502Z,21.67
2022-11-30T15:43:37.724Z,21.98
2022-11-30T15:46:06.209Z,24.02
2022-11-30T15:48:39.639Z,23.40
2022-11-30T15:51:07.421Z,22.90
2022-11-30T15:53:51.972Z,22.75
2022-11-30T15:56:28.504Z,24.42
2022-11-30T15:59:14.203Z,21.90
2022-11-30T16:02:02.757Z,24.05
2022-11-30T16:04:58.062Z,21.90
2022-11-30T16:07:30.273Z,23.85
2022-11-30T16:10:25.830Z,24.38
2022-11-30T16:12:55.425Z,23.30
2022-11-30T16:15:28.623Z,22.33
2022-11-30T16:18:02.542Z,23.38
2022-11-30T16:20:30.023Z,23.65
2022-11-30T16:23:02.480Z,23.10
2022-11-30T16:25:32.999Z,22.58
2022-11-30T16:28:02.792Z,22.25
2022-11-30T16:30:30.868Z,23.17
2022-11-30T16:32:58.333Z,23.48
2022-11-30T16:35:34.764Z,22.98
2022-11-30T16:38:02.571Z,22.20
2022-11-30T16:40:34.034Z,23.25
2022-11-30T16:43:05.975Z,22.50
2022-11-30T16:45:36.897Z,23.75
2022-11-30T16:48:05.374Z,23.85
2022-11-30T16:50:34.889Z,23.70
2022-11-30T16:53:02.601Z,22.50
2022-11-30T16:55:35.223Z,23.85
2022-11-30T16:58:02.692Z,23.20
2022-11-30T17:00:30.556Z,22.05
2022-11-30T17:03:09.873Z,23.42
2022-11-30T17:05:37.432Z,22.55
2022-11-30T17:08:05.075Z,23.33
2022-11-30T17:10:32.613Z,22.13
2022-11-30T17:13:00.138Z,23.52
2022-11-30T17:15:27.632Z,22.60
2022-11-30T17:17:59.377Z,22.95
2022-11-30T17:20:27.729Z,23.48
2022-11-30T17:22:55.213Z,22.13
2022-11-30T17:25:24.052Z,22.95
2022-11-30T17:27:51.792Z,23.65
2022-11-30T17:30:21.591Z,23.67
2022-11-30T17:32:50.205Z,23.52
2022-11-30T17:35:18.911Z,23.25
2022-11-30T17:37:46.623Z,22.52
2022-11-30T17:40:16.242Z,22.35
2022-11-30T17:42:43.971Z,22.67
2022-11-30T17:45:11.644Z,22.17
2022-11-30T17:47:39.202Z,21.40
2022-11-30T17:50:07.685Z,20.98
2022-11-30T17:52:35.902Z,21.25
2022-11-30T17:55:03.689Z,19.98
2022-11-30T17:57:31.172Z,19.13
2022-11-30T17:59:58.668Z,19.92
2022-11-30T18:02:26.278Z,20.60
2022-11-30T18:04:54.674Z,19.77
2022-11-30T18:07:22.324Z,19.17
2022-11-30T18:09:49.830Z,20.20
2022-11-30T18:12:17.298Z,19.55
2022-11-30T18:14:45.682Z,19.13
2022-11-30T18:17:13.312Z,17.90
2022-11-30T18:19:41.139Z,18.80
2022-11-30T18:22:08.730Z,19.15
2022-11-30T18:24:36.202Z,19.63
2022-11-30T18:27:03.640Z,20.77
2022-11-30T18:29:31.151Z,20.58
2022-11-30T18:31:58.642Z,20.08
2022-11-30T18:34:26.242Z,19.95
2022-11-30T18:36:53.776Z,21.50
2022-11-30T18:39:21.393Z,20.63
2022-11-30T18:41:49.422Z,19.00
2022-11-30T18:44:16.960Z,19.77
2022-11-30T18:46:44.525Z,19.45
2022-11-30T18:49:12.018Z,18.38
2022-11-30T18:51:39.502Z,18.73
2022-11-30T18:54:08.418Z,17.75
2022-11-30T18:56:38.836Z,18.95
2022-11-30T18:59:10.241Z,18.50
2022-11-30T19:01:37.979Z,18.90
2022-11-30T19:04:08.299Z,18.15
2022-11-30T19:06:37.910Z,17.20
2022-11-30T19:09:10.503Z,18.50
2022-11-30T19:11:39.322Z,21.65
2022-11-30T19:14:07.674Z,24.35
2022-11-30T19:16:35.997Z,24.45
2022-11-30T19:19:10.402Z,28.38
2022-11-30T19:21:38.261Z,31.05
2022-11-30T19:24:06.130Z,32.15
2022-11-30T19:26:33.645Z,34.13
2022-11-30T19:29:01.094Z,32.85
2022-11-30T19:31:28.679Z,38.83
2022-11-30T19:33:56.653Z,42.67
2022-11-30T19:36:27.036Z,40.80
2022-11-30T19:38:54.951Z,42.70
2022-11-30T19:41:22.462Z,44.72
2022-11-30T19:44:03.941Z,44.33
2022-11-30T19:46:33.205Z,42.08
2022-11-30T19:49:02.039Z,41.72
2022-11-30T19:51:31.319Z,43.75
2022-11-30T19:54:01.730Z,46.45
2022-11-30T19:56:32.020Z,45.20
2022-11-30T19:59:04.582Z,44.17
2022-11-30T20:01:34.159Z,44.50
2022-11-30T20:04:01.872Z,46.17
2022-11-30T20:06:32.721Z,44.13
2022-11-30T20:09:00.622Z,45.90
2022-11-30T20:11:28.622Z,46.17
2022-11-30T20:13:56.160Z,45.15
2022-11-30T20:16:23.707Z,43.65
2022-11-30T20:18:57.332Z,45.95
2022-11-30T20:21:27.912Z,45.03
2022-11-30T20:24:00.143Z,46.92
2022-11-30T20:26:35.198Z,48.83
2022-11-30T20:29:05.429Z,48.13
2022-11-30T20:31:35.934Z,47.63
2022-11-30T20:34:03.784Z,48.97
2022-11-30T20:36:31.634Z,50.72
2022-11-30T20:38:59.802Z,50.90
2022-11-30T20:41:27.440Z,51.80
2022-11-30T20:43:55.842Z,51.95
2022-11-30T20:46:24.728Z,52.20
2022-11-30T20:48:52.282Z,50.20
2022-11-30T20:51:33.255Z,51.88
2022-11-30T20:54:04.067Z,50.67
2022-11-30T20:56:33.118Z,49.15
2022-11-30T20:59:02.663Z,49.33
2022-11-30T21:01:30.717Z,49.28
2022-11-30T21:04:00.841Z,49.78
2022-11-30T21:06:31.677Z,47.88
2022-11-30T21:08:59.848Z,48.92
2022-11-30T21:11:29.287Z,50.97
2022-11-30T21:13:58.224Z,51.42
2022-11-30T21:16:28.887Z,49.85
2022-11-30T21:19:00.347Z,52.55
2022-11-30T21:21:31.008Z,51.90
2022-11-30T21:24:00.753Z,52.90
2022-11-30T21:26:34.113Z,55.60
2022-11-30T21:29:07.123Z,54.38
2022-11-30T21:31:34.989Z,57.60
2022-11-30T21:34:02.984Z,58.13
2022-11-30T21:36:30.511Z,57.20
2022-11-30T21:39:05.557Z,56.45
2022-11-30T21:41:39.193Z,54.97
2022-11-30T21:44:09.916Z,58.13
2022-11-30T21:46:37.699Z,60.75
2022-11-30T21:49:05.333Z,63.22
2022-11-30T21:51:33.402Z,62.28
2022-11-30T21:54:03.338Z,64.68
2022-11-30T21:56:33.932Z,60.60
2022-11-30T21:59:01.994Z,58.67
2022-11-30T22:01:35.423Z,63.95
2022-11-30T22:04:05.290Z,73.43
2022-11-30T22:06:35.230Z,68.80
2022-11-30T22:09:08.086Z,68.07
2022-11-30T22:11:41.512Z,54.30
2022-11-30T22:14:15.731Z,70.03
2022-11-30T22:16:43.717Z,68.50
2022-11-30T22:19:11.349Z,76.45
2022-11-30T22:21:39.171Z,82.00
2022-11-30T22:24:11.381Z,82.60
2022-11-30T22:26:41.584Z,92.55
2022-11-30T22:29:13.453Z,88.70
2022-11-30T22:31:43.321Z,77.88
2022-11-30T22:34:11.350Z,68.25
2022-11-30T22:36:40.322Z,89.05
2022-11-30T22:39:19.421Z,97.85
2022-11-30T22:41:53.061Z,66.38
2022-11-30T22:44:23.870Z,86.68
2022-11-30T22:46:51.433Z,74.35
2022-11-30T22:49:21.624Z,68.45
2022-11-30T22:51:50.825Z,74.60
2022-11-30T22:54:18.732Z,75.72
2022-11-30T22:56:46.796Z,77.82
2022-11-30T22:59:15.325Z,80.55
2022-11-30T23:01:45.584Z,75.93
2022-11-30T23:04:16.104Z,70.18
2022-11-30T23:06:44.843Z,70.65
2022-11-30T23:09:15.343Z,55.45
2022-11-30T23:11:43.732Z,58.72
2022-11-30T23:14:12.376Z,53.28
2022-11-30T23:16:40.448Z,54.63
2022-11-30T23:19:09.230Z,56.80
2022-11-30T23:21:41.485Z,51.58
2022-11-30T23:24:14.771Z,59.83
2022-11-30T23:26:43.100Z,53.33
2022-11-30T23:29:12.918Z,56.20
2022-11-30T23:31:42.001Z,63.53
2022-11-30T23:34:12.252Z,58.55
2022-11-30T23:36:39.820Z,52.85
2022-11-30T23:39:10.932Z,57.80
2022-11-30T23:41:38.926Z,55.10
2022-11-30T23:44:07.531Z,49.83
2022-11-30T23:46:35.646Z,49.85
2022-11-30T23:49:03.282Z,52.88
2022-11-30T23:51:31.041Z,48.40
2022-11-30T23:53:58.488Z,46.45
2022-11-30T23:56:26.011Z,47.13
2022-11-30T23:58:53.580Z,45.83
